createdAt,value
2023-11-05T00:02:18.796Z,95340.45
2023-11-05T00:04:46.679Z,95342.58
2023-11-05T00:07:14.709Z,95338.57
2023-11-05T00:09:43.310Z,95337.77
2023-11-05T00:12:11.171Z,95342.01
2023-11-05T00:14:39.032Z,95339.83
2023-11-05T00:17:07.127Z,95332.73
2023-11-05T00:19:35.437Z,95335.56
2023-11-05T00:22:03.351Z,95333.79
2023-11-05T00:24:31.273Z,95327.03
2023-11-05T00:26:59.170Z,95315.56
2023-11-05T00:29:27.067Z,95321.27
2023-11-05T00:31:54.896Z,95315.02
2023-11-05T00:34:22.998Z,95308.73
2023-11-05T00:36:50.939Z,95309.70
2023-11-05T00:39:18.816Z,95305.86
2023-11-05T00:41:46.768Z,95311.77
2023-11-05T00:44:14.737Z,95313.33
2023-11-05T00:46:42.701Z,95319.17
2023-11-05T00:49:11.726Z,95310.52
2023-11-05T00:51:39.577Z,95298.09
2023-11-05T00:54:07.603Z,95292.26
2023-11-05T00:56:35.869Z,95285.17
2023-11-05T00:59:04.057Z,95285.53
2023-11-05T01:01:32.081Z,95287.25
2023-11-05T01:04:00.078Z,95278.07
2023-11-05T01:06:28.028Z,95283.64
2023-11-05T01:08:55.966Z,95279.65
2023-11-05T01:11:23.796Z,95278.02
2023-11-05T01:13:51.652Z,95269.25
2023-11-05T01:16:19.712Z,95273.67
2023-11-05T01:18:48.116Z,95277.44
2023-11-05T01:21:16.137Z,95277.28
2023-11-05T01:23:44.015Z,95289.61
2023-11-05T01:26:12.352Z,95289.39
2023-11-05T01:28:41.520Z,95284.58
2023-11-05T01:31:09.423Z,95283.40
2023-11-05T01:33:37.474Z,95284.48
2023-11-05T01:36:06.885Z,95290.79
2023-11-05T01:38:34.836Z,95279.71
2023-11-05T01:41:02.731Z,95280.44
2023-11-05T01:43:30.672Z,95289.06
2023-11-05T01:45:58.764Z,95295.61
2023-11-05T01:48:27.787Z,95286.48
2023-11-05T01:50:57.215Z,95277.67
2023-11-05T01:53:26.815Z,95272.27
2023-11-05T01:55:54.971Z,95264.02
2023-11-05T01:58:24.300Z,95259.15
2023-11-05T02:00:53.062Z,95263.94
2023-11-05T02:03:20.944Z,95254.61
2023-11-05T02:05:49.893Z,95241.92
2023-11-05T02:08:17.785Z,95237.38
2023-11-05T02:10:46.848Z,95239.38
2023-11-05T02:13:14.681Z,95242.09
2023-11-05T02:15:42.721Z,95239.48
2023-11-05T02:18:10.641Z,95238.62
2023-11-05T02:20:38.736Z,95230.81
2023-11-05T02:23:08.915Z,95226.10
2023-11-05T02:25:36.787Z,95225.28
2023-11-05T02:28:05.126Z,95223.98
2023-11-05T02:30:33.424Z,95232.60
2023-11-05T02:33:02.057Z,95238.24
2023-11-05T02:35:30.312Z,95236.19
2023-11-05T02:37:58.196Z,95238.59
2023-11-05T02:40:26.178Z,95249.63
2023-11-05T02:42:53.996Z,95254.15
2023-11-05T02:45:21.900Z,95262.33
2023-11-05T02:47:50.327Z,95267.42
2023-11-05T02:50:18.245Z,95271.16
2023-11-05T02:52:46.165Z,95277.10
2023-11-05T02:55:14.233Z,95282.45
2023-11-05T02:57:42.151Z,95278.02
2023-11-05T03:00:12.135Z,95272.15
2023-11-05T03:02:40.658Z,95270.94
2023-11-05T03:05:09.209Z,95258.06
2023-11-05T03:07:37.183Z,95251.77
2023-11-05T03:10:05.845Z,95249.45
2023-11-05T03:12:33.702Z,95234.57
2023-11-05T03:15:01.813Z,95222.37
2023-11-05T03:17:29.845Z,95207.76
2023-11-05T03:19:57.796Z,95197.23
2023-11-05T03:22:25.681Z,95201.11
2023-11-05T03:24:53.813Z,95193.45
2023-11-05T03:27:21.629Z,95193.38
2023-11-05T03:29:49.516Z,95210.98
2023-11-05T03:32:17.423Z,95203.70
2023-11-05T03:34:46.393Z,95197.55
2023-11-05T03:37:14.311Z,95205.23
2023-11-05T03:39:42.133Z,95196.88
2023-11-05T03:42:10.195Z,95198.52
2023-11-05T03:44:38.224Z,95200.06
2023-11-05T03:47:06.711Z,95205.81
2023-11-05T03:49:34.621Z,95219.48
2023-11-05T03:52:02.847Z,95222.50
2023-11-05T03:54:31.019Z,95216.99
2023-11-05T03:57:00.786Z,95225.09
2023-11-05T03:59:28.949Z,95216.10
2023-11-05T04:01:56.836Z,95213.84
2023-11-05T04:04:25.100Z,95218.34
2023-11-05T04:06:52.949Z,95222.27
2023-11-05T04:09:20.768Z,95220.81
2023-11-05T04:11:48.655Z,95221.55
2023-11-05T04:14:17.018Z,95216.06
2023-11-05T04:16:44.938Z,95219.02
2023-11-05T04:19:13.873Z,95220.33
2023-11-05T04:21:41.823Z,95223.07
2023-11-05T04:24:09.747Z,95221.45
2023-11-05T04:26:37.569Z,95225.00
2023-11-05T04:29:05.529Z,95228.95
2023-11-05T04:31:33.403Z,95227.69
2023-11-05T04:34:02.681Z,95227.16
2023-11-05T04:36:30.570Z,95227.29
2023-11-05T04:38:58.450Z,95226.20
2023-11-05T04:41:26.306Z,95224.09
2023-11-05T04:43:54.187Z,95225.55
2023-11-05T04:46:22.019Z,95219.83
2023-11-05T04:48:49.967Z,95225.84
2023-11-05T04:51:18.019Z,95225.33
2023-11-05T04:53:45.917Z,95222.18
2023-11-05T04:56:17.477Z,95220.05
2023-11-05T04:58:45.367Z,95215.59
2023-11-05T05:01:13.302Z,95206.80
2023-11-05T05:03:41.309Z,95195.95
2023-11-05T05:06:09.431Z,95186.36
2023-11-05T05:08:37.302Z,95180.39
2023-11-05T05:11:05.719Z,95172.06
2023-11-05T05:13:33.593Z,95157.57
2023-11-05T05:16:02.514Z,95156.36
2023-11-05T05:18:30.475Z,95155.14
2023-11-05T05:20:58.344Z,95151.13
2023-11-05T05:23:26.271Z,95154.02
2023-11-05T05:25:54.164Z,95152.63
2023-11-05T05:28:22.166Z,95134.86
2023-11-05T05:30:50.085Z,95138.48
2023-11-05T05:33:17.965Z,95133.09
2023-11-05T05:35:45.993Z,95142.76
2023-11-05T05:38:13.808Z,95158.73
2023-11-05T05:40:41.696Z,95156.97
2023-11-05T05:43:09.584Z,95151.00
2023-11-05T05:45:37.397Z,95151.19
2023-11-05T05:48:05.619Z,95153.95
2023-11-05T05:50:33.474Z,95153.83
2023-11-05T05:53:01.307Z,95156.52
2023-11-05T05:55:29.338Z,95160.83
2023-11-05T05:57:57.631Z,95158.61
2023-11-05T06:00:25.607Z,95157.30
2023-11-05T06:02:53.932Z,95165.10
2023-11-05T06:05:22.047Z,95173.54
2023-11-05T06:07:49.962Z,95180.75
2023-11-05T06:10:18.081Z,95187.04
2023-11-05T06:12:45.947Z,95192.59
2023-11-05T06:15:13.905Z,95194.92
2023-11-05T06:17:42.257Z,95188.20
2023-11-05T06:20:10.981Z,95185.39
2023-11-05T06:22:39.741Z,95178.03
2023-11-05T06:25:11.951Z,95177.67
2023-11-05T06:27:40.967Z,95178.00
2023-11-05T06:30:11.179Z,95168.81
2023-11-05T06:32:40.111Z,95164.42
2023-11-05T06:35:08.578Z,95158.86
2023-11-05T06:37:36.554Z,95150.95
2023-11-05T06:40:06.086Z,95139.65
2023-11-05T06:42:33.993Z,95142.13
2023-11-05T06:45:01.972Z,95143.57
2023-11-05T06:47:30.369Z,95139.06
2023-11-05T06:49:58.378Z,95136.34
2023-11-05T06:52:27.907Z,95135.35
2023-11-05T06:54:57.763Z,95133.36
2023-11-05T06:57:25.959Z,95131.46
2023-11-05T06:59:53.848Z,95124.19
2023-11-05T07:02:21.684Z,95113.52
2023-11-05T07:04:49.704Z,95111.23
2023-11-05T07:07:19.627Z,95116.19
2023-11-05T07:09:49.326Z,95109.98
2023-11-05T07:12:17.294Z,95102.81
2023-11-05T07:14:45.126Z,95107.75
2023-11-05T07:17:13.612Z,95099.14
2023-11-05T07:19:41.468Z,95093.74
2023-11-05T07:22:09.432Z,95088.95
2023-11-05T07:24:37.338Z,95090.89
2023-11-05T07:27:06.314Z,95091.03
2023-11-05T07:29:34.129Z,95091.11
2023-11-05T07:32:02.038Z,95091.96
2023-11-05T07:34:29.905Z,95091.69
2023-11-05T07:36:58.383Z,95094.73
2023-11-05T07:39:26.264Z,95101.14
2023-11-05T07:41:54.132Z,95103.55
2023-11-05T07:44:22.238Z,95102.63
2023-11-05T07:46:50.112Z,95111.28
2023-11-05T07:49:17.970Z,95115.27
2023-11-05T07:51:45.920Z,95122.59
2023-11-05T07:54:13.841Z,95118.66
2023-11-05T07:56:41.755Z,95120.10
2023-11-05T07:59:09.667Z,95117.52
2023-11-05T08:01:37.920Z,95116.52
2023-11-05T08:04:05.842Z,95118.77
2023-11-05T08:06:33.637Z,95120.23
2023-11-05T08:09:01.508Z,95128.27
2023-11-05T08:11:29.380Z,95129.11
2023-11-05T08:13:57.906Z,95131.36
2023-11-05T08:16:28.002Z,95130.92
2023-11-05T08:18:55.974Z,95122.77
2023-11-05T08:21:24.966Z,95118.88
2023-11-05T08:23:53.017Z,95116.02
2023-11-05T08:26:21.013Z,95111.78
2023-11-05T08:28:49.226Z,95110.48
2023-11-05T08:31:17.206Z,95120.05
2023-11-05T08:33:47.424Z,95124.63
2023-11-05T08:36:16.903Z,95119.85
2023-11-05T08:38:44.739Z,95117.00
2023-11-05T08:41:12.630Z,95119.85
2023-11-05T08:43:40.708Z,95119.88
2023-11-05T08:46:10.443Z,95120.41
2023-11-05T08:48:38.572Z,95119.98
2023-11-05T08:51:06.650Z,95121.42
2023-11-05T08:53:34.536Z,95120.48
2023-11-05T08:56:03.175Z,95121.61
2023-11-05T08:58:31.353Z,95119.08
2023-11-05T09:01:00.985Z,95117.77
2023-11-05T09:03:28.974Z,95112.52
2023-11-05T09:05:56.884Z,95109.93
2023-11-05T09:08:24.945Z,95113.14
2023-11-05T09:10:53.050Z,95115.05
2023-11-05T09:13:21.027Z,95101.51
2023-11-05T09:15:51.238Z,95102.50
2023-11-05T09:18:19.302Z,95108.05
2023-11-05T09:20:47.188Z,95109.23
2023-11-05T09:23:15.088Z,95108.58
2023-11-05T09:25:43.038Z,95107.33
2023-11-05T09:28:11.023Z,95097.88
2023-11-05T09:30:38.918Z,95083.70
2023-11-05T09:33:07.041Z,95083.88
2023-11-05T09:35:34.986Z,95074.02
2023-11-05T09:38:04.260Z,95073.27
2023-11-05T09:40:35.585Z,95057.70
2023-11-05T09:43:11.681Z,95055.38
2023-11-05T09:45:39.638Z,95047.86
2023-11-05T09:48:09.860Z,95048.41
2023-11-05T09:50:38.836Z,95041.64
2023-11-05T09:53:08.683Z,95043.16
2023-11-05T09:55:36.640Z,95029.90
2023-11-05T09:58:04.682Z,95022.41
2023-11-05T10:00:34.141Z,95011.72
2023-11-05T10:03:10.028Z,95004.61
2023-11-05T10:05:40.391Z,95014.19
2023-11-05T10:08:09.835Z,95013.52
2023-11-05T10:10:40.084Z,95007.96
2023-11-05T10:13:08.228Z,95007.67
2023-11-05T10:15:41.208Z,95003.15
2023-11-05T10:18:19.770Z,94997.45
2023-11-05T10:20:50.753Z,94994.73
2023-11-05T10:23:18.801Z,94995.90
2023-11-05T10:25:54.280Z,94992.27
2023-11-05T10:28:24.260Z,94990.41
2023-11-05T10:30:56.449Z,94991.61
2023-11-05T10:33:26.443Z,94988.98
2023-11-05T10:35:55.091Z,94989.64
2023-11-05T10:38:24.676Z,94991.23
2023-11-05T10:40:53.446Z,94985.95
2023-11-05T10:43:25.167Z,94977.38
2023-11-05T10:45:55.564Z,94959.73
2023-11-05T10:48:23.555Z,94960.23
2023-11-05T10:50:54.548Z,94952.04
2023-11-05T10:53:23.968Z,94943.16
2023-11-05T10:55:52.838Z,94935.08
2023-11-05T10:58:25.318Z,94928.51
2023-11-05T11:01:04.582Z,94916.98
2023-11-05T11:03:32.647Z,94900.39
2023-11-05T11:06:01.905Z,94900.48
2023-11-05T11:08:31.952Z,94898.09
2023-11-05T11:11:13.353Z,94892.48
2023-11-05T11:13:58.832Z,94896.64
2023-11-05T11:16:33.608Z,94903.02
2023-11-05T11:19:08.326Z,94906.91
2023-11-05T11:21:59.116Z,94907.98
2023-11-05T11:24:41.684Z,94913.94
2023-11-05T11:27:16.039Z,94921.08
2023-11-05T11:29:46.558Z,94934.34
2023-11-05T11:32:17.626Z,94965.34
2023-11-05T11:34:46.266Z,94981.82
2023-11-05T11:37:16.119Z,94981.47
2023-11-05T11:39:44.173Z,94990.28
2023-11-05T11:42:12.740Z,94986.46
2023-11-05T11:44:40.678Z,94977.20
2023-11-05T11:47:09.424Z,94970.08
2023-11-05T11:49:37.511Z,94971.07
2023-11-05T11:52:06.053Z,94967.21
2023-11-05T11:54:34.067Z,94974.65
2023-11-05T11:57:02.098Z,94982.08
2023-11-05T11:59:30.123Z,94982.36
2023-11-05T12:01:58.802Z,94976.23
2023-11-05T12:04:27.487Z,94974.83
2023-11-05T12:06:55.425Z,94969.23
2023-11-05T12:09:25.085Z,94958.58
2023-11-05T12:11:53.846Z,94947.11
2023-11-05T12:14:29.173Z,94939.59
2023-11-05T12:16:57.356Z,94941.05
2023-11-05T12:19:26.011Z,94940.45
2023-11-05T12:21:54.873Z,94936.35
2023-11-05T12:24:23.042Z,94933.06
2023-11-05T12:26:51.044Z,94940.08
2023-11-05T12:29:20.380Z,94944.79
2023-11-05T12:31:49.283Z,94951.11
2023-11-05T12:34:17.168Z,94960.05
2023-11-05T12:36:45.400Z,94963.25
2023-11-05T12:39:13.656Z,94963.81
2023-11-05T12:41:43.692Z,94973.06
2023-11-05T12:44:11.759Z,94975.52
2023-11-05T12:46:39.701Z,94980.74
2023-11-05T12:49:07.737Z,94976.77
2023-11-05T12:51:36.137Z,94976.33
2023-11-05T12:54:05.225Z,94981.41
2023-11-05T12:56:33.221Z,94978.14
2023-11-05T12:59:01.548Z,94971.31
2023-11-05T13:01:29.852Z,94980.95
2023-11-05T13:03:58.587Z,94982.10
2023-11-05T13:06:28.201Z,94979.81
2023-11-05T13:08:56.411Z,94976.52
2023-11-05T13:11:25.366Z,94972.21
2023-11-05T13:13:53.501Z,94966.67
2023-11-05T13:16:22.597Z,94957.61
2023-11-05T13:18:50.925Z,94952.94
2023-11-05T13:21:19.196Z,94951.02
2023-11-05T13:23:47.842Z,94955.85
2023-11-05T13:26:18.533Z,94962.77
2023-11-05T13:28:46.434Z,94967.23
2023-11-05T13:31:14.455Z,94969.33
2023-11-05T13:33:42.783Z,94969.83
2023-11-05T13:36:10.795Z,94970.44
2023-11-05T13:38:38.880Z,94974.39
2023-11-05T13:41:07.589Z,94978.61
2023-11-05T13:43:35.602Z,94982.95
2023-11-05T13:46:04.294Z,94977.18
2023-11-05T13:48:32.641Z,94975.27
2023-11-05T13:51:01.063Z,94980.09
2023-11-05T13:53:28.901Z,94992.25
2023-11-05T13:55:56.830Z,95000.36
2023-11-05T13:58:24.743Z,94995.19
2023-11-05T14:00:55.414Z,94994.09
2023-11-05T14:03:23.488Z,94985.80
2023-11-05T14:05:51.736Z,94982.91
2023-11-05T14:08:19.817Z,94996.19
2023-11-05T14:10:50.431Z,94993.00
2023-11-05T14:13:18.814Z,95000.06
2023-11-05T14:15:46.710Z,94993.09
2023-11-05T14:18:14.739Z,94991.54
2023-11-05T14:20:42.834Z,94991.97
2023-11-05T14:23:13.619Z,94977.55
2023-11-05T14:25:43.192Z,94977.52
2023-11-05T14:28:11.602Z,94988.89
2023-11-05T14:30:39.474Z,94996.03
2023-11-05T14:33:07.516Z,95004.45
2023-11-05T14:35:35.514Z,95011.09
2023-11-05T14:38:05.083Z,95011.58
2023-11-05T14:40:33.261Z,95018.93
2023-11-05T14:43:03.559Z,95035.17
2023-11-05T14:45:33.044Z,95036.52
2023-11-05T14:48:02.493Z,95035.41
2023-11-05T14:50:31.415Z,95040.08
2023-11-05T14:53:00.365Z,95047.59
2023-11-05T14:55:28.423Z,95044.44
2023-11-05T14:57:56.676Z,95052.70
2023-11-05T15:00:24.589Z,95054.25
2023-11-05T15:02:52.610Z,95057.34
2023-11-05T15:05:21.311Z,95059.41
2023-11-05T15:07:49.600Z,95057.70
2023-11-05T15:10:18.084Z,95058.20
2023-11-05T15:12:45.946Z,95067.33
2023-11-05T15:15:13.954Z,95070.05
2023-11-05T15:17:43.850Z,95078.20
2023-11-05T15:20:11.987Z,95077.65
2023-11-05T15:22:43.098Z,95083.85
2023-11-05T15:25:11.626Z,95082.25
2023-11-05T15:27:39.642Z,95086.73
2023-11-05T15:30:09.853Z,95080.24
2023-11-05T15:32:38.941Z,95079.04
2023-11-05T15:35:07.430Z,95082.92
2023-11-05T15:37:35.547Z,95087.54
2023-11-05T15:40:05.369Z,95088.72
2023-11-05T15:42:37.941Z,95089.91
2023-11-05T15:45:06.306Z,95103.48
2023-11-05T15:47:34.474Z,95114.00
2023-11-05T15:50:02.423Z,95125.08
2023-11-05T15:52:30.417Z,95125.28
2023-11-05T15:54:58.447Z,95121.48
2023-11-05T15:57:26.269Z,95124.91
2023-11-05T15:59:54.128Z,95127.13
2023-11-05T16:02:21.985Z,95123.98
2023-11-05T16:04:50.219Z,95132.45
2023-11-05T16:07:21.948Z,95129.27
2023-11-05T16:09:51.058Z,95135.95
2023-11-05T16:12:21.508Z,95138.96
2023-11-05T16:14:51.483Z,95139.34
2023-11-05T16:17:20.342Z,95138.70
2023-11-05T16:19:49.529Z,95144.67
2023-11-05T16:22:17.565Z,95146.73
2023-11-05T16:24:45.801Z,95143.88
2023-11-05T16:27:13.978Z,95142.79
2023-11-05T16:29:42.021Z,95145.76
2023-11-05T16:32:09.971Z,95149.55
2023-11-05T16:34:42.888Z,95154.32
2023-11-05T16:37:11.067Z,95157.71
2023-11-05T16:39:41.742Z,95161.47
2023-11-05T16:42:11.301Z,95164.23
2023-11-05T16:44:39.373Z,95164.73
2023-11-05T16:47:11.461Z,95164.77
2023-11-05T16:49:41.195Z,95165.64
2023-11-05T16:52:09.295Z,95161.48
2023-11-05T16:54:38.351Z,95167.13
2023-11-05T16:57:08.377Z,95175.80
2023-11-05T16:59:38.848Z,95180.56
2023-11-05T17:02:10.824Z,95181.80
2023-11-05T17:04:40.373Z,95186.77
2023-11-05T17:07:08.758Z,95191.70
2023-11-05T17:09:36.746Z,95200.83
2023-11-05T17:12:05.067Z,95209.23
2023-11-05T17:14:33.218Z,95222.67
2023-11-05T17:17:02.207Z,95227.63
2023-11-05T17:19:30.631Z,95229.88
2023-11-05T17:21:58.712Z,95222.98
2023-11-05T17:24:26.802Z,95231.65
2023-11-05T17:26:55.747Z,95239.80
2023-11-05T17:29:23.787Z,95248.14
2023-11-05T17:31:51.806Z,95250.50
2023-11-05T17:34:19.872Z,95252.71
2023-11-05T17:36:48.186Z,95249.98
2023-11-05T17:39:16.082Z,95252.48
2023-11-05T17:41:44.654Z,95259.09
2023-11-05T17:44:13.180Z,95260.13
2023-11-05T17:46:41.108Z,95264.70
2023-11-05T17:49:11.255Z,95264.10
2023-11-05T17:51:39.229Z,95261.98
2023-11-05T17:54:07.397Z,95270.60
2023-11-05T17:56:35.261Z,95276.49
2023-11-05T17:59:03.268Z,95276.30
2023-11-05T18:01:31.316Z,95280.58
2023-11-05T18:03:59.338Z,95286.30
2023-11-05T18:06:27.240Z,95288.85
2023-11-05T18:08:55.631Z,95291.63
2023-11-05T18:11:25.310Z,95293.23
2023-11-05T18:13:53.243Z,95296.71
2023-11-05T18:16:21.390Z,95304.64
2023-11-05T18:18:49.317Z,95300.61
2023-11-05T18:21:17.257Z,95306.05
2023-11-05T18:23:45.121Z,95308.65
2023-11-05T18:26:13.059Z,95313.34
2023-11-05T18:28:41.000Z,95319.04
2023-11-05T18:31:09.169Z,95328.90
2023-11-05T18:33:37.212Z,95330.41
2023-11-05T18:36:05.599Z,95335.98
2023-11-05T18:38:33.807Z,95337.18
2023-11-05T18:41:02.529Z,95344.89
2023-11-05T18:43:30.465Z,95348.20
2023-11-05T18:46:00.666Z,95355.27
2023-11-05T18:48:29.339Z,95361.05
2023-11-05T18:50:57.258Z,95365.58
2023-11-05T18:53:25.158Z,95369.58
2023-11-05T18:55:53.076Z,95365.63
2023-11-05T18:58:21.322Z,95368.84
2023-11-05T19:00:49.147Z,95373.83
2023-11-05T19:03:17.195Z,95370.34
2023-11-05T19:05:45.309Z,95370.64
2023-11-05T19:08:13.347Z,95370.23
2023-11-05T19:10:42.373Z,95370.79
2023-11-05T19:13:10.336Z,95371.16
2023-11-05T19:15:38.181Z,95367.09
2023-11-05T19:18:06.164Z,95371.34
2023-11-05T19:20:34.051Z,95376.77
2023-11-05T19:23:01.982Z,95375.91
2023-11-05T19:25:29.844Z,95375.89
2023-11-05T19:27:57.766Z,95375.34
2023-11-05T19:30:25.625Z,95379.84
2023-11-05T19:32:53.607Z,95388.46
2023-11-05T19:35:21.702Z,95393.60
2023-11-05T19:37:49.582Z,95397.11
2023-11-05T19:40:17.443Z,95405.79
2023-11-05T19:42:46.512Z,95416.86
2023-11-05T19:45:14.415Z,95422.50
2023-11-05T19:47:43.725Z,95425.48
2023-11-05T19:50:14.791Z,95429.34
2023-11-05T19:52:43.196Z,95430.80
2023-11-05T19:55:11.349Z,95430.13
2023-11-05T19:57:39.310Z,95432.17
2023-11-05T20:00:07.912Z,95434.55
2023-11-05T20:02:41.104Z,95443.97
2023-11-05T20:05:10.685Z,95444.21
2023-11-05T20:07:39.027Z,95446.45
2023-11-05T20:10:07.337Z,95454.61
2023-11-05T20:12:38.633Z,95464.13
2023-11-05T20:15:07.812Z,95467.77
2023-11-05T20:17:37.173Z,95473.44
2023-11-05T20:20:05.717Z,95480.12
2023-11-05T20:22:34.344Z,95489.19
2023-11-05T20:25:02.261Z,95488.02
2023-11-05T20:27:30.093Z,95491.86
2023-11-05T20:29:57.956Z,95491.44
2023-11-05T20:32:25.768Z,95498.60
2023-11-05T20:34:55.517Z,95503.75
2023-11-05T20:37:24.240Z,95509.58
2023-11-05T20:39:52.168Z,95513.23
2023-11-05T20:42:21.071Z,95518.88
2023-11-05T20:44:48.892Z,95518.63
2023-11-05T20:47:16.788Z,95522.28
2023-11-05T20:49:45.512Z,95529.28
2023-11-05T20:52:13.552Z,95535.96
2023-11-05T20:54:41.372Z,95543.43
2023-11-05T20:57:09.265Z,95545.15
2023-11-05T20:59:37.250Z,95550.88
2023-11-05T21:02:05.293Z,95552.11
2023-11-05T21:04:33.173Z,95556.81
2023-11-05T21:07:03.220Z,95561.05
2023-11-05T21:09:31.241Z,95564.67
2023-11-05T21:11:59.111Z,95569.84
2023-11-05T21:14:27.757Z,95571.69
2023-11-05T21:16:56.014Z,95571.40
2023-11-05T21:19:24.023Z,95577.20
2023-11-05T21:21:51.954Z,95582.15
2023-11-05T21:24:19.821Z,95589.14
2023-11-05T21:26:47.638Z,95590.55
2023-11-05T21:29:17.813Z,95585.52
2023-11-05T21:31:45.822Z,95587.88
2023-11-05T21:34:13.878Z,95588.48
2023-11-05T21:36:41.892Z,95595.54
2023-11-05T21:39:14.966Z,95594.26
2023-11-05T21:41:48.584Z,95595.17
2023-11-05T21:44:16.589Z,95598.46
2023-11-05T21:46:45.958Z,95605.14
2023-11-05T21:49:15.253Z,95605.47
2023-11-05T21:51:43.089Z,95611.02
2023-11-05T21:54:13.886Z,95618.01
2023-11-05T21:56:43.726Z,95615.66
2023-11-05T21:59:11.685Z,95617.70
2023-11-05T22:01:39.574Z,95614.16
2023-11-05T22:04:07.550Z,95621.36
2023-11-05T22:06:35.625Z,95619.37
2023-11-05T22:09:04.028Z,95630.14
2023-11-05T22:11:31.865Z,95629.08
2023-11-05T22:13:59.790Z,95625.10
2023-11-05T22:16:27.631Z,95633.55
2023-11-05T22:18:55.530Z,95637.81
2023-11-05T22:21:23.440Z,95632.14
2023-11-05T22:23:51.328Z,95639.83
2023-11-05T22:26:19.210Z,95642.89
2023-11-05T22:28:47.105Z,95648.16
2023-11-05T22:31:15.094Z,95655.78
2023-11-05T22:33:42.985Z,95657.88
2023-11-05T22:36:11.837Z,95665.92
2023-11-05T22:38:39.739Z,95677.27
2023-11-05T22:41:07.789Z,95683.92
2023-11-05T22:43:35.605Z,95687.11
2023-11-05T22:46:04.137Z,95686.58
2023-11-05T22:48:32.025Z,95684.88
2023-11-05T22:50:59.967Z,95686.61
2023-11-05T22:53:27.848Z,95687.54
2023-11-05T22:55:55.826Z,95690.85
2023-11-05T22:58:23.833Z,95691.47
2023-11-05T23:00:52.687Z,95697.98
2023-11-05T23:03:21.308Z,95702.45
2023-11-05T23:05:53.688Z,95702.23
2023-11-05T23:08:25.284Z,95717.33
2023-11-05T23:10:53.180Z,95719.53
2023-11-05T23:13:21.334Z,95724.23
2023-11-05T23:15:50.242Z,95728.60
2023-11-05T23:18:19.027Z,95728.70
2023-11-05T23:20:46.922Z,95735.70
2023-11-05T23:23:16.536Z,95741.34
2023-11-05T23:25:44.634Z,95741.21
2023-11-05T23:28:14.442Z,95742.23
2023-11-05T23:30:42.653Z,95747.55
2023-11-05T23:33:10.644Z,95756.41
2023-11-05T23:35:42.138Z,95756.67
2023-11-05T23:38:10.062Z,95757.31
2023-11-05T23:40:38.547Z,95752.07
2023-11-05T23:43:06.829Z,95759.38
2023-11-05T23:45:35.323Z,95756.94
2023-11-05T23:48:03.455Z,95765.08
2023-11-05T23:50:31.378Z,95769.87
2023-11-05T23:52:59.492Z,95769.55
2023-11-05T23:55:27.428Z,95772.98
2023-11-05T23:57:55.602Z,95772.41
